Time;durP1;ratioP1;P1;durP2;ratioP2;P2;SDS_P1;SDS_P2;PMS_P1;PMS_P2;Temp;Humidity;BMP_temperature;BMP_pressure;BME280_temperature;BME280_humidity;BME280_pressure;Samples;Min_cycle;Max_cycle;Signal;HPM_P1;HPM_P2
2022/06/03 00:02:44;;;;;;;0.70;0.63;;;16.20;54.30;18.20;93954.00;;;;10317907;28;45192;-62
2022/06/03 00:08:43;;;;;;;0.88;0.60;;;16.20;54.20;18.20;93955.00;;;;10289140;28;45923;-61
2022/06/03 00:14:45;;;;;;;0.90;0.75;;;16.20;54.40;18.20;93974.00;;;;10317750;28;45165;-62
2022/06/03 00:20:21;;;;;;;0.70;0.60;;;16.20;54.40;18.20;93984.00;;;;10315970;28;45819;-62
2022/06/03 00:26:21;;;;;;;0.77;0.70;;;16.20;54.30;18.20;93965.00;;;;10316994;28;45147;-63
2022/06/03 00:32:16;;;;;;;0.77;0.70;;;16.20;54.40;18.20;93959.00;;;;10316727;28;45088;-62
2022/06/03 00:37:49;;;;;;;0.70;0.63;;;16.20;54.40;18.20;93964.00;;;;10316549;28;45191;-62
2022/06/03 00:43:30;;;;;;;0.65;0.65;;;16.20;54.40;18.20;93979.00;;;;10316461;28;45246;-62
2022/06/03 00:49:11;;;;;;;0.70;0.60;;;16.20;54.50;18.20;93979.00;;;;10316138;28;45152;-62
2022/06/03 00:55:08;;;;;;;1.38;0.82;;;16.20;54.70;18.20;93971.00;;;;10316577;28;45152;-62
2022/06/03 01:00:33;;;;;;;0.90;0.60;;;16.20;54.60;18.20;93965.00;;;;10312624;28;45790;-62
2022/06/03 01:06:24;;;;;;;0.93;0.70;;;16.20;54.70;18.20;93964.00;;;;10312505;28;45422;-62
2022/06/03 01:12:27;;;;;;;0.77;0.68;;;16.20;54.70;18.20;93973.00;;;;10315958;28;45835;-62
2022/06/03 01:18:08;;;;;;;1.42;0.80;;;16.20;54.70;18.20;93976.00;;;;10315699;28;45253;-62
2022/06/03 01:24:14;;;;;;;0.65;0.65;;;16.20;54.90;18.20;93969.00;;;;10315557;28;45265;-62
2022/06/03 01:29:56;;;;;;;0.88;0.80;;;16.20;54.90;18.20;93956.00;;;;10287775;28;45683;-62
2022/06/03 01:36:14;;;;;;;0.60;0.60;;;16.20;54.90;18.20;93920.00;;;;10315837;28;45758;-62
2022/06/03 01:42:06;;;;;;;1.48;0.70;;;16.10;54.90;18.20;93889.00;;;;10315272;28;46083;-62
2022/06/03 01:48:37;;;;;;;0.70;0.70;;;16.10;55.10;18.20;93930.00;;;;10311314;28;45689;-62
2022/06/03 01:54:55;;;;;;;1.23;0.73;;;16.10;54.90;18.20;93973.00;;;;10314434;28;45862;-62
2022/06/03 02:00:31;;;;;;;1.52;1.02;;;16.10;54.80;18.20;93986.00;;;;10313818;28;45751;-62
2022/06/03 02:06:42;;;;;;;0.90;0.70;;;16.10;55.10;18.20;93971.00;;;;10313658;28;45127;-62
2022/06/03 02:12:38;;;;;;;0.90;0.75;;;16.10;55.10;18.20;93980.00;;;;10288347;28;45144;-62
2022/06/03 02:18:40;;;;;;;0.63;0.60;;;16.10;55.10;18.20;93977.00;;;;10313705;28;45750;-62
2022/06/03 02:24:42;;;;;;;1.10;0.90;;;16.10;55.00;18.20;93944.00;;;;10306941;28;45701;-62
2022/06/03 02:30:45;;;;;;;0.93;0.80;;;16.10;55.20;18.20;93928.00;;;;10312756;28;45787;-61
2022/06/03 02:37:13;;;;;;;1.77;0.70;;;16.10;55.30;18.20;93882.00;;;;10313098;28;45167;-62
2022/06/03 02:43:04;;;;;;;0.88;0.80;;;16.10;55.30;18.20;93888.00;;;;10304280;28;45151;-62
2022/06/03 02:49:11;;;;;;;0.70;0.63;;;16.10;55.20;18.20;93922.00;;;;10313221;28;45251;-63
2022/06/03 02:55:27;;;;;;;2.13;1.13;;;16.10;55.20;18.20;93924.00;;;;10313455;28;45115;-62
2022/06/03 03:01:09;;;;;;;0.68;0.68;;;16.10;55.20;18.20;93902.00;;;;10313333;28;45347;-62
2022/06/03 03:06:51;;;;;;;0.95;0.90;;;16.10;55.20;18.20;93924.00;;;;10312079;28;45111;-62
2022/06/03 03:13:19;;;;;;;1.15;0.90;;;16.10;55.30;18.20;93923.00;;;;10312665;28;45179;-62
2022/06/03 03:19:08;;;;;;;1.00;0.90;;;16.10;55.30;18.20;93926.00;;;;10312290;28;45793;-62
2022/06/03 03:25:22;;;;;;;1.17;0.85;;;16.10;55.20;18.20;93930.00;;;;10312025;28;45113;-62
2022/06/03 03:31:04;;;;;;;1.15;0.80;;;16.10;55.30;18.20;93914.00;;;;10311579;28;45186;-62
2022/06/03 03:36:50;;;;;;;0.75;0.75;;;16.10;55.50;18.20;93905.00;;;;10311589;28;45231;-62
2022/06/03 03:43:09;;;;;;;0.90;0.80;;;16.10;55.50;18.10;93912.00;;;;10311351;28;45181;-62
2022/06/03 03:49:16;;;;;;;1.38;0.90;;;16.10;55.60;18.20;93928.00;;;;10311417;28;45691;-62
2022/06/03 03:55:22;;;;;;;1.10;0.93;;;16.10;55.60;18.10;93935.00;;;;10301510;28;45921;-62
2022/06/03 04:01:32;;;;;;;1.08;0.93;;;16.10;55.60;18.20;93932.00;;;;10294641;28;45198;-62
2022/06/03 04:07:28;;;;;;;0.80;0.80;;;16.10;55.50;18.20;93941.00;;;;10317487;28;45862;-62
2022/06/03 04:13:32;;;;;;;1.00;0.90;;;16.10;55.50;18.10;93932.00;;;;10317623;28;45262;-62
2022/06/03 04:19:18;;;;;;;1.52;0.85;;;16.10;55.60;18.20;93931.00;;;;10317444;28;45051;-62
2022/06/03 04:25:21;;;;;;;0.82;0.80;;;16.10;55.60;18.20;93927.00;;;;10318236;28;45171;-63
2022/06/03 04:31:32;;;;;;;1.00;0.90;;;16.10;55.50;18.20;93914.00;;;;10316437;28;45791;-62
2022/06/03 04:37:45;;;;;;;1.00;0.77;;;16.10;55.50;18.20;93933.00;;;;10316671;28;45151;-62
2022/06/03 04:43:57;;;;;;;1.30;1.00;;;16.10;55.50;18.20;93934.00;;;;10305221;28;45180;-62
2022/06/03 04:50:15;;;;;;;0.90;0.80;;;16.10;55.60;18.20;93927.00;;;;10316113;28;45217;-62
2022/06/03 04:56:19;;;;;;;1.00;0.80;;;16.10;55.60;18.20;93933.00;;;;10310872;28;45179;-62
2022/06/03 05:02:48;;;;;;;1.67;1.10;;;16.10;55.70;18.20;93927.00;;;;10316535;28;45915;-62
2022/06/03 05:09:04;;;;;;;0.90;0.80;;;16.10;55.60;18.20;93934.00;;;;10315070;28;45170;-62
2022/06/03 05:15:19;;;;;;;1.10;0.80;;;16.10;55.60;18.20;93925.00;;;;10315898;28;45186;-62
2022/06/03 05:21:11;;;;;;;1.00;0.80;;;16.10;55.50;18.20;93924.00;;;;10299779;28;45121;-62
2022/06/03 05:27:03;;;;;;;1.52;0.90;;;16.10;55.50;18.20;93915.00;;;;10315514;28;45104;-62
2022/06/03 05:33:21;;;;;;;0.93;0.90;;;16.10;55.50;18.20;93920.00;;;;10314684;28;45254;-62
2022/06/03 05:39:36;;;;;;;1.00;0.90;;;16.10;55.60;18.20;93912.00;;;;10313044;28;45221;-62
2022/06/03 05:45:36;;;;;;;1.00;0.90;;;16.10;55.40;18.20;93905.00;;;;10315356;28;45255;-62
2022/06/03 05:51:06;;;;;;;1.33;1.02;;;16.10;55.90;18.20;93897.00;;;;10314117;28;46067;-62
2022/06/03 05:56:45;;;;;;;1.67;0.90;;;16.10;55.20;18.20;93902.00;;;;10314242;28;45211;-62
2022/06/03 06:02:19;;;;;;;0.95;0.80;;;16.10;55.10;18.20;93903.00;;;;10314284;28;45191;-62
2022/06/03 06:07:52;;;;;;;1.10;0.90;;;16.10;55.00;18.20;93908.00;;;;10313887;28;45152;-62
2022/06/03 06:13:42;;;;;;;1.77;0.90;;;16.10;55.00;18.20;93902.00;;;;10313731;28;45270;-62
2022/06/03 06:19:08;;;;;;;1.00;0.90;;;16.20;55.00;18.20;93896.00;;;;10309595;28;45694;-62
2022/06/03 06:24:52;;;;;;;1.52;1.10;;;16.10;55.00;18.20;93900.00;;;;10312660;28;45279;-62
2022/06/03 06:30:26;;;;;;;1.45;0.85;;;16.10;55.00;18.20;93890.00;;;;10312845;28;45361;-62
2022/06/03 06:36:45;;;;;;;1.30;1.00;;;16.10;55.00;18.20;93889.00;;;;10312569;28;45795;-62
2022/06/03 06:42:17;;;;;;;1.67;1.00;;;16.20;55.00;18.20;93897.00;;;;10312933;28;45817;-62
2022/06/03 06:47:48;;;;;;;2.03;1.10;;;16.20;55.00;18.20;93888.00;;;;10312357;28;45354;-62
2022/06/03 06:53:13;;;;;;;1.25;0.93;;;16.10;55.00;18.20;93873.00;;;;10311512;28;45684;-62
2022/06/03 06:58:45;;;;;;;2.63;1.23;;;16.10;54.90;18.20;93863.00;;;;10312757;28;45858;-62
2022/06/03 07:04:12;;;;;;;3.75;1.20;;;16.20;55.00;18.30;93858.00;;;;10313458;28;45839;-67
2022/06/03 07:09:53;;;;;;;1.67;1.00;;;16.20;55.20;18.30;93861.00;;;;10312864;28;45754;-72
2022/06/03 07:15:21;;;;;;;2.30;0.80;;;16.20;56.00;18.50;93855.00;;;;10312411;28;45148;-61
2022/06/03 07:20:51;;;;;;;3.47;1.10;;;16.40;55.30;18.50;93854.00;;;;10312369;28;45255;-62
2022/06/03 07:26:22;;;;;;;1.67;0.80;;;16.40;55.10;18.40;93855.00;;;;10311860;28;45317;-61
2022/06/03 07:31:48;;;;;;;2.85;0.90;;;16.40;54.80;18.40;93854.00;;;;10319641;28;45171;-61
2022/06/03 07:37:17;;;;;;;1.67;0.85;;;16.40;54.80;18.40;93844.00;;;;10315852;28;45297;-62
2022/06/03 07:42:45;;;;;;;2.95;1.02;;;16.40;54.70;18.40;93847.00;;;;10278311;28;45858;-61
2022/06/03 07:48:08;;;;;;;;;;;16.30;55.10;18.40;93840.00;;;;10278384;28;45475;-62
2022/06/03 07:53:44;;;;;;;2.95;1.20;;;16.30;55.00;18.40;93836.00;;;;10277173;28;45918;-62
2022/06/03 07:59:10;;;;;;;4.65;0.90;;;16.30;55.10;18.40;93833.00;;;;10277468;28;45374;-63
2022/06/03 08:04:33;;;;;;;2.08;0.98;;;16.30;54.50;18.40;93828.00;;;;10277062;28;45842;-61
2022/06/03 08:15:54;;;;;;;3.38;1.20;;;16.30;55.40;18.40;93811.00;;;;10276631;28;45178;-61
2022/06/03 08:21:21;;;;;;;2.13;1.02;;;16.30;55.30;18.40;93822.00;;;;10277307;28;45403;-62
2022/06/03 08:26:46;;;;;;;1.98;1.08;;;16.30;55.50;18.40;93810.00;;;;10276781;28;45373;-63
2022/06/03 08:32:10;;;;;;;1.65;1.02;;;16.30;55.50;18.40;93798.00;;;;10276097;28;45780;-62
2022/06/03 08:37:36;;;;;;;1.92;1.15;;;16.30;55.70;18.40;93778.00;;;;10276333;28;45512;-63
2022/06/03 08:43:07;;;;;;;3.20;1.23;;;16.30;55.50;18.40;93789.00;;;;10274794;28;45177;-61
2022/06/03 08:48:34;;;;;;;1.85;0.95;;;16.30;55.40;18.40;93783.00;;;;10275598;28;45806;-62
2022/06/03 08:54:03;;;;;;;2.83;1.05;;;16.30;55.40;18.40;93778.00;;;;10275871;28;45137;-61
2022/06/03 08:59:32;;;;;;;2.20;1.08;;;16.30;55.60;18.40;93766.00;;;;10305540;28;45210;-61
2022/06/03 09:05:01;;;;;;;2.35;1.20;;;16.30;55.10;18.40;93784.00;;;;10316095;28;45194;-61
2022/06/03 09:10:28;;;;;;;2.58;1.25;;;16.30;55.20;18.40;93779.00;;;;10315102;28;45185;-61
2022/06/03 09:15:51;;;;;;;2.47;1.10;;;16.30;55.20;18.40;93788.00;;;;10315830;28;45240;-62
2022/06/03 09:21:14;;;;;;;2.03;1.10;;;16.30;55.10;18.40;93787.00;;;;10315720;28;45236;-61
2022/06/03 09:26:40;;;;;;;1.73;1.10;;;16.30;55.10;18.40;93773.00;;;;10316087;28;45199;-61
2022/06/03 09:32:05;;;;;;;1.38;1.00;;;16.30;55.30;18.40;93769.00;;;;10314615;28;45236;-61
2022/06/03 09:37:31;;;;;;;2.63;1.08;;;16.30;55.80;18.40;93778.00;;;;10314206;28;45198;-62
2022/06/03 09:42:59;;;;;;;2.72;1.30;;;16.30;55.40;18.40;93770.00;;;;10315267;28;45915;-61
2022/06/03 09:48:26;;;;;;;3.08;1.38;;;16.30;55.20;18.40;93787.00;;;;10314535;28;45787;-61
2022/06/03 09:53:49;;;;;;;3.63;1.10;;;16.30;55.10;18.40;93779.00;;;;10314001;28;45703;-61
2022/06/03 09:59:11;;;;;;;2.17;1.17;;;16.30;56.00;18.50;93757.00;;;;10313669;28;45154;-62
2022/06/03 10:04:33;;;;;;;1.70;0.90;;;16.40;56.90;18.50;93741.00;;;;10315142;28;45237;-62
2022/06/03 10:15:42;;;;;;;1.73;1.25;;;16.50;57.70;18.60;93763.00;;;;10313683;28;45795;-61
2022/06/03 10:21:33;;;;;;;2.00;1.10;;;16.50;57.80;18.60;93787.00;;;;10314039;28;45433;-61
2022/06/03 10:27:01;;;;;;;2.50;1.20;;;16.50;58.10;18.60;93781.00;;;;10313766;28;45164;-62
2022/06/03 10:32:23;;;;;;;2.20;1.27;;;16.50;57.20;18.50;93799.00;;;;10313912;28;45468;-61
2022/06/03 10:37:51;;;;;;;2.00;1.08;;;16.50;57.30;18.50;93796.00;;;;10313244;28;45097;-61
2022/06/03 10:43:12;;;;;;;1.95;1.15;;;16.70;56.90;18.50;93817.00;;;;10304564;28;46054;-62
2022/06/03 10:48:34;;;;;;;2.05;1.25;;;16.40;56.70;18.50;93860.00;;;;10312139;28;45163;-62
2022/06/03 11:05:26;;;;;;;4.55;1.35;;;16.40;56.70;18.50;93876.00;;;;10318288;28;45215;-61
2022/06/03 11:10:52;;;;;;;2.40;1.00;;;16.40;57.10;18.50;93868.00;;;;10316747;28;45806;-62
2022/06/03 11:16:16;;;;;;;4.18;1.23;;;16.40;57.00;18.50;93835.00;;;;10299836;28;45759;-63
2022/06/03 11:21:37;;;;;;;3.08;1.35;;;16.40;56.90;18.50;93821.00;;;;10319261;28;45167;-61
2022/06/03 11:26:59;;;;;;;5.75;1.42;;;16.40;56.80;18.50;93837.00;;;;10311175;28;45842;-61
2022/06/03 11:32:20;;;;;;;2.22;1.20;;;16.40;57.00;18.50;93838.00;;;;10310512;28;45497;-62
2022/06/03 11:37:45;;;;;;;4.00;1.38;;;16.40;57.00;18.50;93845.00;;;;10310672;28;45846;-61
2022/06/03 11:43:15;;;;;;;2.47;1.30;;;16.40;56.90;18.50;93879.00;;;;10277719;28;45413;-61
2022/06/03 11:48:39;;;;;;;3.55;1.30;;;16.40;56.90;18.50;93900.00;;;;10294768;28;45259;-61
2022/06/03 11:54:00;;;;;;;2.67;1.50;;;16.40;56.90;18.50;93896.00;;;;10310329;28;45787;-62
2022/06/03 11:59:31;;;;;;;2.22;1.10;;;16.40;57.30;18.50;93896.00;;;;10295599;28;45244;-61
2022/06/03 12:04:57;;;;;;;2.13;0.95;;;16.40;57.30;18.50;93903.00;;;;10317195;28;45267;-62
2022/06/03 12:10:25;;;;;;;3.08;1.20;;;16.40;57.30;18.50;93887.00;;;;10317413;28;45225;-62
2022/06/03 12:16:09;;;;;;;2.30;1.20;;;16.40;57.60;18.50;93866.00;;;;10314189;28;45203;-61
2022/06/03 12:21:58;;;;;;;4.53;1.50;;;16.50;57.90;18.60;93863.00;;;;10311981;28;46051;-63
2022/06/03 12:27:25;;;;;;;2.15;1.20;;;16.50;58.50;18.60;93879.00;;;;10316499;28;45678;-61
2022/06/03 12:32:55;;;;;;;4.32;1.40;;;16.50;59.70;18.60;93906.00;;;;10316378;28;45118;-61
2022/06/03 12:38:41;;;;;;;3.13;1.38;;;16.50;59.00;18.60;93923.00;;;;10316505;28;45150;-61
2022/06/03 12:44:02;;;;;;;3.10;1.27;;;16.50;58.60;18.50;93901.00;;;;10317026;28;45397;-61
2022/06/03 12:49:51;;;;;;;3.92;1.30;;;16.50;58.50;18.60;93903.00;;;;10315518;28;45111;-62
2022/06/03 12:55:24;;;;;;;1.80;1.20;;;16.50;58.30;18.50;93890.00;;;;10314090;28;45787;-62
2022/06/03 13:00:53;;;;;;;2.15;1.40;;;16.50;58.00;18.50;93898.00;;;;10315850;28;45308;-61
2022/06/03 13:06:17;;;;;;;2.35;1.58;;;16.50;57.90;18.50;93891.00;;;;10315909;28;45153;-61
2022/06/03 13:11:46;;;;;;;2.60;1.13;;;16.50;57.80;18.50;93898.00;;;;10315054;28;45249;-62
2022/06/03 13:17:07;;;;;;;1.75;1.13;;;16.40;57.70;18.50;93911.00;;;;10301038;28;45249;-61
2022/06/03 13:22:47;;;;;;;2.58;1.13;;;16.40;57.60;18.50;93895.00;;;;10295978;28;45292;-61
2022/06/03 13:28:35;;;;;;;2.20;1.20;;;16.40;57.90;18.50;93896.00;;;;10294371;28;45272;-62
2022/06/03 13:34:19;;;;;;;1.75;1.20;;;16.40;57.70;18.50;93908.00;;;;10301507;28;45835;-62
2022/06/03 13:40:20;;;;;;;1.58;0.90;;;16.40;57.60;18.50;93912.00;;;;10302518;28;45325;-61
2022/06/03 13:45:56;;;;;;;1.80;1.30;;;16.40;58.00;18.50;93910.00;;;;10299497;28;45156;-62
2022/06/03 13:51:30;;;;;;;1.80;1.13;;;16.40;57.90;18.50;93930.00;;;;10306718;28;45156;-62
2022/06/03 13:57:08;;;;;;;1.85;1.17;;;16.40;57.70;18.40;93926.00;;;;10286529;28;45760;-61
2022/06/03 14:02:37;;;;;;;1.40;1.02;;;16.40;57.50;18.50;93928.00;;;;10314310;28;45696;-62
2022/06/03 14:08:01;;;;;;;1.75;1.02;;;16.40;57.30;18.50;93943.00;;;;10313615;28;45212;-63
2022/06/03 14:13:37;;;;;;;2.85;1.27;;;16.40;57.20;18.40;93930.00;;;;10313380;28;45702;-61
2022/06/03 14:19:40;;;;;;;1.30;1.02;;;16.30;57.10;18.40;93949.00;;;;10313077;28;45168;-62
2022/06/03 14:25:15;;;;;;;1.95;1.17;;;16.40;57.30;18.50;93934.00;;;;10313539;28;45382;-61
2022/06/03 14:30:47;;;;;;;3.30;1.00;;;16.40;57.00;18.50;93948.00;;;;10311733;28;45553;-60
2022/06/03 14:36:09;;;;;;;2.70;1.33;;;16.40;57.70;18.50;93935.00;;;;10299035;28;45144;-62
2022/06/03 14:41:33;;;;;;;1.80;1.08;;;16.40;57.50;18.50;93934.00;;;;10311901;28;45215;-62
2022/06/03 14:46:59;;;;;;;1.85;1.20;;;16.40;57.40;18.50;93933.00;;;;10312088;28;45115;-61
2022/06/03 14:52:24;;;;;;;2.92;1.13;;;16.40;57.40;18.50;93913.00;;;;10311214;28;45194;-61
2022/06/03 14:57:50;;;;;;;2.58;1.38;;;16.40;57.20;18.40;93920.00;;;;10312607;28;45167;-62
2022/06/03 15:03:21;;;;;;;3.58;1.48;;;16.40;57.00;18.50;93923.00;;;;10312810;28;45223;-61
2022/06/03 15:08:46;;;;;;;4.72;1.00;;;16.40;57.50;18.40;93898.00;;;;10312599;28;45159;-62
2022/06/03 15:14:09;;;;;;;2.10;1.10;;;16.40;57.50;18.50;93921.00;;;;10311501;28;45108;-62
2022/06/03 15:19:42;;;;;;;6.03;1.20;;;16.40;57.30;18.50;93927.00;;;;10267139;28;45270;-62
2022/06/03 15:25:17;;;;;;;2.55;1.33;;;16.40;57.50;18.50;93927.00;;;;10299446;28;45784;-62
2022/06/03 15:30:42;;;;;;;2.30;1.10;;;16.40;57.40;18.50;93919.00;;;;10306889;28;45168;-62
2022/06/03 15:36:13;;;;;;;2.28;1.20;;;16.40;57.20;18.60;93930.00;;;;10306630;28;45182;-62
2022/06/03 15:41:33;;;;;;;2.42;1.10;;;16.50;56.80;18.60;93927.00;;;;10310160;28;46072;-60
2022/06/03 15:46:59;;;;;;;3.22;1.20;;;16.50;57.90;18.70;93913.00;;;;10298712;28;45183;-60
2022/06/03 15:52:24;;;;;;;2.60;1.10;;;16.60;57.00;18.70;93909.00;;;;10316157;28;45231;-60
2022/06/03 15:57:57;;;;;;;3.50;1.20;;;16.60;56.90;18.70;93901.00;;;;10315691;28;45229;-60
2022/06/03 16:03:27;;;;;;;2.25;1.10;;;16.60;56.90;18.70;93906.00;;;;10316006;28;45817;-61
2022/06/03 16:09:03;;;;;;;2.55;1.00;;;16.70;57.10;18.70;93899.00;;;;10307363;28;45738;-61
2022/06/03 16:14:44;;;;;;;8.87;1.20;;;16.70;57.20;18.70;93910.00;;;;10313708;28;45863;-62
2022/06/03 16:20:09;;;;;;;2.45;1.15;;;16.70;57.10;18.70;93906.00;;;;10314832;28;45183;-62
2022/06/03 16:25:54;;;;;;;3.30;1.10;;;16.60;57.40;18.70;93906.00;;;;10314105;28;45799;-61
2022/06/03 16:31:22;;;;;;;2.38;1.38;;;16.70;57.00;18.80;93911.00;;;;10314305;28;45707;-62
2022/06/03 16:36:49;;;;;;;5.57;1.33;;;16.70;57.10;18.80;93894.00;;;;10308380;28;45203;-61
2022/06/03 16:42:19;;;;;;;5.43;1.50;;;16.70;57.20;18.80;93891.00;;;;10312002;28;45373;-61
2022/06/03 16:47:48;;;;;;;5.07;1.25;;;16.70;57.30;18.80;93899.00;;;;10314112;28;45206;-60
2022/06/03 16:53:15;;;;;;;6.38;1.20;;;16.70;57.20;18.80;93888.00;;;;10308875;28;45683;-64
2022/06/03 16:58:49;;;;;;;3.47;1.30;;;16.70;57.30;18.90;93904.00;;;;10293355;28;45699;-61
2022/06/03 17:04:10;;;;;;;4.25;1.20;;;16.80;57.60;18.90;93895.00;;;;10294390;28;45786;-61
2022/06/03 17:09:35;;;;;;;5.03;1.17;;;16.80;57.10;18.90;93895.00;;;;10293472;28;45862;-60
2022/06/03 17:14:57;;;;;;;5.57;1.40;;;16.90;56.90;19.00;93883.00;;;;10300741;28;45242;-61
2022/06/03 17:20:44;;;;;;;4.35;1.25;;;16.90;57.10;19.00;93896.00;;;;10335346;28;45162;-62
2022/06/03 17:26:13;;;;;;;4.13;1.30;;;16.90;56.70;19.00;93892.00;;;;10353870;28;45862;-61
2022/06/03 17:31:42;;;;;;;4.40;0.98;;;17.00;57.00;19.00;93888.00;;;;10325310;28;45227;-61
2022/06/03 17:37:19;;;;;;;3.05;1.10;;;17.00;56.50;19.00;93890.00;;;;10312946;28;45190;-61
2022/06/03 17:42:47;;;;;;;5.22;1.02;;;17.00;56.80;19.10;93892.00;;;;10272663;28;45275;-61
2022/06/03 17:48:23;;;;;;;2.67;1.00;;;17.00;56.40;19.10;93882.00;;;;10271453;28;45902;-61
2022/06/03 17:59:40;;;;;;;3.72;1.10;;;17.00;56.90;19.10;93895.00;;;;10271290;28;45268;-61
2022/06/03 18:05:10;;;;;;;2.30;1.00;;;17.00;56.80;19.10;93891.00;;;;10286750;28;45358;-61
2022/06/03 18:10:34;;;;;;;2.45;1.25;;;17.00;56.80;19.10;93888.00;;;;10298079;28;45839;-62
2022/06/03 18:15:59;;;;;;;5.60;1.30;;;17.00;56.80;19.00;93882.00;;;;10313447;28;45261;-62
2022/06/03 18:22:00;;;;;;;3.92;1.20;;;17.00;57.10;19.00;93895.00;;;;10313480;28;45791;-62
2022/06/03 18:27:39;;;;;;;3.30;1.10;;;17.00;57.30;19.00;93868.00;;;;10311854;28;45452;-62
2022/06/03 18:33:09;;;;;;;1.83;1.33;;;16.90;57.60;18.90;93867.00;;;;10312386;28;45774;-62
2022/06/03 18:39:02;;;;;;;4.78;1.23;;;16.90;57.70;18.90;93854.00;;;;10312771;28;45183;-62
2022/06/03 18:44:45;;;;;;;4.32;1.15;;;16.90;57.60;18.90;93865.00;;;;10312788;28;45203;-62
2022/06/03 18:50:22;;;;;;;2.17;1.13;;;16.80;57.90;18.90;93881.00;;;;10312004;28;45417;-62
2022/06/03 18:55:54;;;;;;;1.55;0.90;;;16.80;57.50;18.90;93869.00;;;;10312503;28;45245;-62
2022/06/03 19:01:26;;;;;;;2.75;0.90;;;16.80;57.30;18.90;93859.00;;;;10312552;28;45195;-62
2022/06/03 19:07:00;;;;;;;2.17;0.95;;;16.80;57.50;18.90;93875.00;;;;10311961;28;45184;-62
2022/06/03 19:12:34;;;;;;;3.10;0.95;;;16.80;57.60;18.90;93877.00;;;;10312494;28;45135;-62
2022/06/03 19:18:18;;;;;;;1.65;1.10;;;16.70;57.50;18.80;93874.00;;;;10311926;28;45200;-62
2022/06/03 19:24:18;;;;;;;2.55;1.00;;;16.70;57.40;18.80;93856.00;;;;10313574;28;45719;-62
2022/06/03 19:29:41;;;;;;;3.65;1.13;;;16.70;57.40;18.80;93867.00;;;;10317995;28;45147;-62
2022/06/03 19:35:03;;;;;;;2.15;1.00;;;16.70;57.20;18.80;93890.00;;;;10319205;28;45144;-62
2022/06/03 19:40:47;;;;;;;2.40;1.13;;;16.70;57.20;18.80;93893.00;;;;10316590;28;45174;-62
2022/06/03 19:46:29;;;;;;;2.22;1.10;;;16.70;57.20;18.80;93892.00;;;;10318543;28;45127;-62
2022/06/03 19:51:56;;;;;;;2.58;1.27;;;16.70;57.20;18.80;93907.00;;;;10318651;28;45184;-62
2022/06/03 19:57:27;;;;;;;1.67;0.93;;;16.60;57.20;18.70;93912.00;;;;10317553;28;45182;-62
2022/06/03 20:03:11;;;;;;;2.25;1.10;;;16.60;57.20;18.70;93904.00;;;;10317870;28;45162;-62
2022/06/03 20:08:46;;;;;;;1.58;1.00;;;16.60;57.20;18.70;93889.00;;;;10312279;28;45225;-62
2022/06/03 20:14:10;;;;;;;2.03;1.00;;;16.60;57.20;18.70;93886.00;;;;10317068;28;45656;-61
2022/06/03 20:19:32;;;;;;;1.55;0.90;;;16.60;57.20;18.70;93902.00;;;;10317254;28;45200;-61
2022/06/03 20:25:00;;;;;;;1.98;0.93;;;16.60;57.20;18.70;93907.00;;;;10317754;28;45107;-62
2022/06/03 20:30:25;;;;;;;1.30;0.70;;;16.60;57.40;18.70;93908.00;;;;10317137;28;45264;-61
2022/06/03 20:36:01;;;;;;;2.53;1.00;;;16.60;57.30;18.70;93901.00;;;;10315334;28;46602;-62
2022/06/03 20:41:25;;;;;;;2.97;1.20;;;16.60;57.20;18.70;93907.00;;;;10316374;28;45275;-61
2022/06/03 20:46:58;;;;;;;1.23;1.00;;;16.60;57.20;18.70;93925.00;;;;10316715;28;45152;-62
2022/06/03 20:52:27;;;;;;;1.63;0.90;;;16.60;57.20;18.70;93924.00;;;;10315914;28;45238;-61
2022/06/03 20:57:48;;;;;;;2.08;0.80;;;16.60;57.20;18.70;93919.00;;;;10316023;28;45703;-61
2022/06/03 21:12:48;;;;;;;1.90;1.20;;;16.60;57.20;18.70;93913.00;;;;10316251;28;45186;-61
2022/06/03 21:14:35;;;;;;;2.25;0.80;;;16.60;57.30;18.60;93927.00;;;;10315638;28;45298;-61
2022/06/03 21:19:56;;;;;;;1.17;0.85;;;16.60;57.30;18.70;93928.00;;;;10315213;28;45166;-62
2022/06/03 21:25:18;;;;;;;1.65;0.90;;;16.60;57.30;18.60;93936.00;;;;10315304;28;45192;-62
2022/06/03 21:30:52;;;;;;;1.45;0.90;;;16.50;57.30;18.60;93938.00;;;;10314691;28;45316;-61
2022/06/03 21:36:23;;;;;;;2.25;1.00;;;16.60;57.50;18.60;93946.00;;;;10315709;28;45158;-60
2022/06/03 21:41:45;;;;;;;3.17;1.10;;;16.50;57.50;18.60;93944.00;;;;10315659;28;45247;-61
2022/06/03 21:47:17;;;;;;;1.92;0.85;;;16.50;57.60;18.60;93953.00;;;;10314134;28;45754;-62
2022/06/03 21:53:10;;;;;;;1.63;0.90;;;16.50;57.60;18.60;93955.00;;;;10314172;28;45668;-62
2022/06/03 21:58:52;;;;;;;1.98;1.08;;;16.50;57.60;18.60;93975.00;;;;10314397;28;45715;-62
2022/06/03 22:04:14;;;;;;;2.13;1.08;;;16.50;57.60;18.60;93967.00;;;;10313963;28;45707;-63
2022/06/03 22:09:35;;;;;;;1.85;1.00;;;16.50;57.70;18.60;93972.00;;;;10313446;28;45711;-62
2022/06/03 22:14:57;;;;;;;1.70;0.98;;;16.50;57.60;18.60;93964.00;;;;10313815;28;45255;-62
2022/06/03 22:20:21;;;;;;;1.65;0.93;;;16.50;57.60;18.60;93978.00;;;;10313134;28;45850;-63
2022/06/03 22:25:55;;;;;;;1.27;0.90;;;16.50;57.80;18.60;93961.00;;;;10313233;28;45135;-63
2022/06/03 22:31:31;;;;;;;1.48;1.10;;;16.50;57.90;18.60;93961.00;;;;10312796;28;46830;-63
2022/06/03 22:38:57;;;;;;;1.55;0.98;;;16.50;57.90;18.60;93961.00;;;;10313094;28;45232;-62
2022/06/03 22:43:04;;;;;;;1.10;0.90;;;16.50;57.90;18.60;93954.00;;;;10308464;28;45747;-63
2022/06/03 22:48:26;;;;;;;2.03;0.85;;;16.50;58.00;18.60;93939.00;;;;10309401;28;45453;-63
2022/06/03 22:53:47;;;;;;;1.40;0.90;;;16.50;58.00;18.60;93970.00;;;;10312407;28;45782;-62
2022/06/03 22:59:07;;;;;;;2.55;0.85;;;16.50;58.10;18.50;93954.00;;;;10314483;28;45188;-62
2022/06/03 23:04:31;;;;;;;1.40;1.00;;;16.40;57.90;18.50;93952.00;;;;10320184;28;45819;-62
2022/06/03 23:09:52;;;;;;;1.00;0.82;;;16.40;58.10;18.50;93965.00;;;;10319164;28;45215;-63
2022/06/03 23:15:12;;;;;;;1.23;0.95;;;16.50;58.10;18.50;93974.00;;;;10319473;28;45671;-62
2022/06/03 23:20:42;;;;;;;1.92;1.00;;;16.40;58.10;18.50;93952.00;;;;10319258;28;45211;-61
2022/06/03 23:26:06;;;;;;;1.48;1.00;;;16.40;58.80;18.50;93958.00;;;;10319099;28;45159;-61
2022/06/03 23:31:28;;;;;;;2.25;1.00;;;16.40;58.30;18.50;93936.00;;;;10318389;28;45193;-62
2022/06/03 23:36:50;;;;;;;1.10;0.88;;;16.50;58.40;18.50;93931.00;;;;10318700;28;45201;-61
2022/06/03 23:47:49;;;;;;;1.38;1.00;;;16.40;58.20;18.50;93937.00;;;;10318400;28;45206;-61
2022/06/03 23:53:16;;;;;;;1.17;0.80;;;16.40;58.10;18.50;93936.00;;;;10317977;28;45847;-61
2022/06/03 23:58:37;;;;;;;1.30;0.80;;;16.40;58.30;18.50;93927.00;;;;10317767;28;45483;-62
